Country Club Heights, Kentucky
Current Conditions -  °F | °C
As of 5:15 AM on Sunday 25 Jan 2015 (Local Time) from KFGX Reporting Station
Clear Clear  
Wind Chill: 28°   Ceiling: Unl
Heat Index: 33°   Visibility: 7mi
Dew Point: 31°   Wind: 6mph
Humidity: 90%   Direction: 210°SSW
Pressure: 29.78"   Gusts: NA
Location:  38.585°N, 83.7789°W
Report Text: KFGX 251015Z AUTO 21005KT 7SM CLR 01/M01 A2978 RMK AO2 T00071007
Loading
Personal Weather Stations






























Interactive Weather Map New forecast layout! Learn more

10-Day Weather Forecast

Advertisements
Track Severe Weather on mobile